sensor_id;sensor_type;location;lat;lon;timestamp;pressure;altitude;pressure_sealevel;temperature;humidity
5651;BME280;40241;52.684;9.758;2023-04-21T00:00:53;101602.72;;;11.71;57.99
5651;BME280;40241;52.684;9.758;2023-04-21T00:03:19;101598.94;;;11.69;57.97
5651;BME280;40241;52.684;9.758;2023-04-21T00:05:46;101597.44;;;11.68;57.94
5651;BME280;40241;52.684;9.758;2023-04-21T00:08:12;101595.13;;;11.66;57.92
5651;BME280;40241;52.684;9.758;2023-04-21T00:10:38;101606.16;;;11.66;57.89
5651;BME280;40241;52.684;9.758;2023-04-21T00:13:03;101590.84;;;11.65;58.04
5651;BME280;40241;52.684;9.758;2023-04-21T00:15:28;101595.78;;;11.61;57.80
5651;BME280;40241;52.684;9.758;2023-04-21T00:17:54;101591.03;;;11.62;57.96
5651;BME280;40241;52.684;9.758;2023-04-21T00:20:20;101583.22;;;11.60;58.00
5651;BME280;40241;52.684;9.758;2023-04-21T00:22:45;101585.69;;;11.58;57.95
5651;BME280;40241;52.684;9.758;2023-04-21T00:25:11;101581.16;;;11.55;58.17
5651;BME280;40241;52.684;9.758;2023-04-21T00:27:36;101579.06;;;11.50;58.12
5651;BME280;40241;52.684;9.758;2023-04-21T00:30:01;101577.06;;;11.51;58.07
5651;BME280;40241;52.684;9.758;2023-04-21T00:32:27;101566.22;;;11.47;58.31
5651;BME280;40241;52.684;9.758;2023-04-21T00:34:52;101575.75;;;11.46;58.20
5651;BME280;40241;52.684;9.758;2023-04-21T00:37:17;101576.19;;;11.45;58.28
5651;BME280;40241;52.684;9.758;2023-04-21T00:39:43;101562.13;;;11.43;58.25
5651;BME280;40241;52.684;9.758;2023-04-21T00:42:08;101565.88;;;11.40;58.45
5651;BME280;40241;52.684;9.758;2023-04-21T00:44:34;101560.81;;;11.38;58.52
5651;BME280;40241;52.684;9.758;2023-04-21T00:46:59;101562.06;;;11.37;58.31
5651;BME280;40241;52.684;9.758;2023-04-21T00:49:25;101569.28;;;11.35;58.35
5651;BME280;40241;52.684;9.758;2023-04-21T00:51:51;101583.06;;;11.35;58.39
5651;BME280;40241;52.684;9.758;2023-04-21T00:54:17;101559.47;;;11.33;58.68
5651;BME280;40241;52.684;9.758;2023-04-21T00:56:42;101556.44;;;11.31;58.63
5651;BME280;40241;52.684;9.758;2023-04-21T00:59:08;101554.72;;;11.34;58.51
5651;BME280;40241;52.684;9.758;2023-04-21T01:01:33;101552.75;;;11.35;58.82
5651;BME280;40241;52.684;9.758;2023-04-21T01:04:01;101554.72;;;11.34;58.76
5651;BME280;40241;52.684;9.758;2023-04-21T01:06:28;101557.22;;;11.32;58.93
5651;BME280;40241;52.684;9.758;2023-04-21T01:08:54;101552.19;;;11.30;58.54
5651;BME280;40241;52.684;9.758;2023-04-21T01:11:20;101542.88;;;11.28;58.93
5651;BME280;40241;52.684;9.758;2023-04-21T01:13:46;101539.63;;;11.29;58.58
5651;BME280;40241;52.684;9.758;2023-04-21T01:16:16;101536.31;;;11.25;59.33
5651;BME280;40241;52.684;9.758;2023-04-21T01:18:43;101537.94;;;11.17;58.53
5651;BME280;40241;52.684;9.758;2023-04-21T01:21:08;101529.38;;;11.15;59.01
5651;BME280;40241;52.684;9.758;2023-04-21T01:23:33;101533.66;;;11.16;58.92
5651;BME280;40241;52.684;9.758;2023-04-21T01:25:59;101534.31;;;11.11;58.93
5651;BME280;40241;52.684;9.758;2023-04-21T01:28:25;101535.06;;;11.12;58.86
5651;BME280;40241;52.684;9.758;2023-04-21T01:30:51;101530.81;;;11.11;59.07
5651;BME280;40241;52.684;9.758;2023-04-21T01:33:17;101523.75;;;11.10;58.83
5651;BME280;40241;52.684;9.758;2023-04-21T01:35:44;101530.69;;;11.05;59.01
5651;BME280;40241;52.684;9.758;2023-04-21T01:38:09;101527.78;;;11.09;58.91
5651;BME280;40241;52.684;9.758;2023-04-21T01:40:35;101533.00;;;11.07;58.76
5651;BME280;40241;52.684;9.758;2023-04-21T01:43:01;101521.69;;;11.05;59.23
5651;BME280;40241;52.684;9.758;2023-04-21T01:45:28;101524.25;;;11.08;58.95
5651;BME280;40241;52.684;9.758;2023-04-21T01:47:53;101524.72;;;11.07;58.72
5651;BME280;40241;52.684;9.758;2023-04-21T01:50:19;101528.13;;;11.02;59.06
5651;BME280;40241;52.684;9.758;2023-04-21T01:52:44;101528.13;;;11.02;58.93
5651;BME280;40241;52.684;9.758;2023-04-21T01:55:10;101524.81;;;10.98;59.21
5651;BME280;40241;52.684;9.758;2023-04-21T01:57:35;101527.09;;;10.99;59.11
5651;BME280;40241;52.684;9.758;2023-04-21T02:00:01;101518.25;;;10.95;58.98
5651;BME280;40241;52.684;9.758;2023-04-21T02:02:27;101522.72;;;10.93;59.00
5651;BME280;40241;52.684;9.758;2023-04-21T02:04:52;101516.63;;;10.89;59.26
5651;BME280;40241;52.684;9.758;2023-04-21T02:07:17;101514.81;;;10.86;59.21
5651;BME280;40241;52.684;9.758;2023-04-21T02:09:43;101527.84;;;10.85;59.06
5651;BME280;40241;52.684;9.758;2023-04-21T02:12:08;101521.00;;;10.81;59.61
5651;BME280;40241;52.684;9.758;2023-04-21T02:14:36;101519.47;;;10.80;59.16
5651;BME280;40241;52.684;9.758;2023-04-21T02:17:01;101507.25;;;10.81;59.31
5651;BME280;40241;52.684;9.758;2023-04-21T02:19:27;101518.69;;;10.79;59.35
5651;BME280;40241;52.684;9.758;2023-04-21T02:21:53;101511.22;;;10.80;59.42
5651;BME280;40241;52.684;9.758;2023-04-21T02:24:18;101515.50;;;10.81;59.25
5651;BME280;40241;52.684;9.758;2023-04-21T02:26:43;101515.50;;;10.81;59.67
5651;BME280;40241;52.684;9.758;2023-04-21T02:29:09;101506.75;;;10.82;59.40
5651;BME280;40241;52.684;9.758;2023-04-21T02:31:34;101509.50;;;10.82;59.43
5651;BME280;40241;52.684;9.758;2023-04-21T02:34:00;101505.81;;;10.85;59.24
5651;BME280;40241;52.684;9.758;2023-04-21T02:36:28;101509.78;;;10.84;59.69
5651;BME280;40241;52.684;9.758;2023-04-21T02:38:54;101508.09;;;10.87;59.40
5651;BME280;40241;52.684;9.758;2023-04-21T02:41:19;101515.09;;;10.88;59.47
5651;BME280;40241;52.684;9.758;2023-04-21T02:43:44;101516.63;;;10.89;59.43
5651;BME280;40241;52.684;9.758;2023-04-21T02:46:09;101513.59;;;10.87;59.55
5651;BME280;40241;52.684;9.758;2023-04-21T02:48:35;101505.63;;;10.89;59.37
5651;BME280;40241;52.684;9.758;2023-04-21T02:51:00;101514.53;;;10.84;59.28
5651;BME280;40241;52.684;9.758;2023-04-21T02:53:26;101513.78;;;10.83;59.71
5651;BME280;40241;52.684;9.758;2023-04-21T02:55:51;101517.56;;;10.86;59.50
5651;BME280;40241;52.684;9.758;2023-04-21T02:58:17;101509.59;;;10.88;59.60
5651;BME280;40241;52.684;9.758;2023-04-21T03:00:42;101510.09;;;10.86;59.43
5651;BME280;40241;52.684;9.758;2023-04-21T03:03:07;101510.38;;;10.88;59.44
5651;BME280;40241;52.684;9.758;2023-04-21T03:05:33;101501.34;;;10.88;59.33
5651;BME280;40241;52.684;9.758;2023-04-21T03:07:59;101503.81;;;10.86;59.65
5651;BME280;40241;52.684;9.758;2023-04-21T03:10:24;101504.84;;;10.88;59.42
5651;BME280;40241;52.684;9.758;2023-04-21T03:12:49;101507.91;;;10.90;59.56
5651;BME280;40241;52.684;9.758;2023-04-21T03:15:15;101513.13;;;10.88;59.43
5651;BME280;40241;52.684;9.758;2023-04-21T03:17:41;101504.84;;;10.88;59.38
5651;BME280;40241;52.684;9.758;2023-04-21T03:20:07;101509.59;;;10.88;59.72
5651;BME280;40241;52.684;9.758;2023-04-21T03:22:34;101512.84;;;10.86;59.50
5651;BME280;40241;52.684;9.758;2023-04-21T03:25:00;101513.31;;;10.85;59.32
5651;BME280;40241;52.684;9.758;2023-04-21T03:27:25;101512.06;;;10.86;59.48
5651;BME280;40241;52.684;9.758;2023-04-21T03:29:50;101515.78;;;10.83;59.35
5651;BME280;40241;52.684;9.758;2023-04-21T03:32:16;101513.03;;;10.83;59.46
5651;BME280;40241;52.684;9.758;2023-04-21T03:34:41;101511.50;;;10.82;59.51
5651;BME280;40241;52.684;9.758;2023-04-21T03:37:06;101515.50;;;10.81;59.40
5651;BME280;40241;52.684;9.758;2023-04-21T03:39:32;101519.00;;;10.81;59.45
5651;BME280;40241;52.684;9.758;2023-04-21T03:41:57;101509.72;;;10.79;59.31
5651;BME280;40241;52.684;9.758;2023-04-21T03:44:25;101514.94;;;10.77;59.87
5651;BME280;40241;52.684;9.758;2023-04-21T03:46:54;101509.09;;;10.75;59.62
5651;BME280;40241;52.684;9.758;2023-04-21T03:49:20;101505.63;;;10.74;59.32
5651;BME280;40241;52.684;9.758;2023-04-21T03:51:45;101516.63;;;10.74;59.31
5651;BME280;40241;52.684;9.758;2023-04-21T03:54:11;101519.09;;;10.72;59.50
5651;BME280;40241;52.684;9.758;2023-04-21T03:56:36;101516.63;;;10.74;59.25
5651;BME280;40241;52.684;9.758;2023-04-21T03:59:01;101518.31;;;10.72;59.26
5651;BME280;40241;52.684;9.758;2023-04-21T04:01:27;101518.31;;;10.72;59.29
5651;BME280;40241;52.684;9.758;2023-04-21T04:03:52;101508.25;;;10.69;59.36
5651;BME280;40241;52.684;9.758;2023-04-21T04:06:18;101521.72;;;10.67;59.56
5651;BME280;40241;52.684;9.758;2023-04-21T04:08:43;101517.19;;;10.64;59.44
5651;BME280;40241;52.684;9.758;2023-04-21T04:11:08;101521.91;;;10.63;59.44
5651;BME280;40241;52.684;9.758;2023-04-21T04:13:34;101518.69;;;10.65;59.27
5651;BME280;40241;52.684;9.758;2023-04-21T04:15:59;101519.44;;;10.65;59.25
5651;BME280;40241;52.684;9.758;2023-04-21T04:18:25;101520.97;;;10.66;59.23
5651;BME280;40241;52.684;9.758;2023-04-21T04:20:50;101527.22;;;10.67;59.41
5651;BME280;40241;52.684;9.758;2023-04-21T04:23:16;101526.47;;;10.66;59.31
5651;BME280;40241;52.684;9.758;2023-04-21T04:25:41;101516.41;;;10.63;59.11
5651;BME280;40241;52.684;9.758;2023-04-21T04:28:07;101525.13;;;10.62;59.17
5651;BME280;40241;52.684;9.758;2023-04-21T04:30:33;101528.94;;;10.64;59.25
5651;BME280;40241;52.684;9.758;2023-04-21T04:32:59;101541.28;;;10.69;59.11
5651;BME280;40241;52.684;9.758;2023-04-21T04:35:25;101530.25;;;10.69;58.99
5651;BME280;40241;52.684;9.758;2023-04-21T04:37:50;101533.31;;;10.71;59.21
5651;BME280;40241;52.684;9.758;2023-04-21T04:40:16;101529.34;;;10.72;59.03
5651;BME280;40241;52.684;9.758;2023-04-21T04:42:41;101535.00;;;10.68;59.12
5651;BME280;40241;52.684;9.758;2023-04-21T04:45:07;101533.22;;;10.65;59.07
5651;BME280;40241;52.684;9.758;2023-04-21T04:47:36;101529.69;;;10.65;59.16
5651;BME280;40241;52.684;9.758;2023-04-21T04:50:03;101541.19;;;10.63;59.13
5651;BME280;40241;52.684;9.758;2023-04-21T04:52:28;101532.72;;;10.67;59.19
5651;BME280;40241;52.684;9.758;2023-04-21T04:54:54;101541.75;;;10.67;59.05
5651;BME280;40241;52.684;9.758;2023-04-21T04:57:19;101535.09;;;10.59;59.22
5651;BME280;40241;52.684;9.758;2023-04-21T04:59:45;101531.00;;;10.54;59.41
5651;BME280;40241;52.684;9.758;2023-04-21T05:02:10;101534.69;;;10.51;59.37
5651;BME280;40241;52.684;9.758;2023-04-21T05:04:36;101532.56;;;10.46;59.41
5651;BME280;40241;52.684;9.758;2023-04-21T05:07:02;101538.06;;;10.46;59.56
5651;BME280;40241;52.684;9.758;2023-04-21T05:09:27;101536.09;;;10.47;59.55
5651;BME280;40241;52.684;9.758;2023-04-21T05:11:52;101534.13;;;10.47;59.61
5651;BME280;40241;52.684;9.758;2023-04-21T05:14:18;101551.47;;;10.53;59.68
5651;BME280;40241;52.684;9.758;2023-04-21T05:16:43;101546.09;;;10.59;59.52
5651;BME280;40241;52.684;9.758;2023-04-21T05:19:08;101545.16;;;10.62;59.44
5651;BME280;40241;52.684;9.758;2023-04-21T05:21:34;101549.44;;;10.63;59.40
5651;BME280;40241;52.684;9.758;2023-04-21T05:23:59;101547.91;;;10.62;59.68
5651;BME280;40241;52.684;9.758;2023-04-21T05:26:26;101550.19;;;10.64;59.41
5651;BME280;40241;52.684;9.758;2023-04-21T05:28:55;101553.41;;;10.62;59.64
5651;BME280;40241;52.684;9.758;2023-04-21T05:31:24;101547.91;;;10.62;59.91
5651;BME280;40241;52.684;9.758;2023-04-21T05:33:49;101547.91;;;10.62;59.93
5651;BME280;40241;52.684;9.758;2023-04-21T05:36:15;101547.84;;;10.71;59.91
5651;BME280;40241;52.684;9.758;2023-04-21T05:38:41;101552.50;;;10.80;59.86
5651;BME280;40241;52.684;9.758;2023-04-21T05:41:06;101552.13;;;10.87;59.64
5651;BME280;40241;52.684;9.758;2023-04-21T05:43:32;101554.69;;;10.90;59.66
5651;BME280;40241;52.684;9.758;2023-04-21T05:45:58;101549.88;;;11.00;59.85
5651;BME280;40241;52.684;9.758;2023-04-21T05:48:23;101554.75;;;11.05;59.74
5651;BME280;40241;52.684;9.758;2023-04-21T05:50:49;101556.94;;;11.15;59.80
5651;BME280;40241;52.684;9.758;2023-04-21T05:53:14;101560.94;;;11.29;59.70
5651;BME280;40241;52.684;9.758;2023-04-21T05:55:40;101564.34;;;11.39;59.65
5651;BME280;40241;52.684;9.758;2023-04-21T05:58:05;101561.75;;;11.50;59.52
5651;BME280;40241;52.684;9.758;2023-04-21T06:00:31;101560.63;;;11.56;59.43
5651;BME280;40241;52.684;9.758;2023-04-21T06:02:56;101558.97;;;11.64;59.39
5651;BME280;40241;52.684;9.758;2023-04-21T06:05:21;101563.88;;;11.69;59.56
5651;BME280;40241;52.684;9.758;2023-04-21T06:07:47;101561.00;;;11.78;59.40
5651;BME280;40241;52.684;9.758;2023-04-21T06:10:12;101552.78;;;11.84;59.51
5651;BME280;40241;52.684;9.758;2023-04-21T06:12:37;101562.69;;;11.90;59.41
5651;BME280;40241;52.684;9.758;2023-04-21T06:15:03;101553.34;;;12.02;59.29
5651;BME280;40241;52.684;9.758;2023-04-21T06:17:28;101557.97;;;12.11;59.32
5651;BME280;40241;52.684;9.758;2023-04-21T06:19:54;101549.34;;;12.24;59.50
5651;BME280;40241;52.684;9.758;2023-04-21T06:22:23;101553.78;;;12.36;59.24
5651;BME280;40241;52.684;9.758;2023-04-21T06:24:48;101551.63;;;12.45;59.06
5651;BME280;40241;52.684;9.758;2023-04-21T06:27:14;101547.25;;;12.53;59.07
5651;BME280;40241;52.684;9.758;2023-04-21T06:29:40;101543.09;;;12.63;58.84
5651;BME280;40241;52.684;9.758;2023-04-21T06:32:09;101541.69;;;12.73;59.11
5651;BME280;40241;52.684;9.758;2023-04-21T06:34:35;101542.56;;;12.85;58.90
5651;BME280;40241;52.684;9.758;2023-04-21T06:37:01;101541.72;;;12.99;58.62
5651;BME280;40241;52.684;9.758;2023-04-21T06:39:26;101540.06;;;13.07;58.51
5651;BME280;40241;52.684;9.758;2023-04-21T06:41:51;101539.63;;;13.14;58.39
5651;BME280;40241;52.684;9.758;2023-04-21T06:44:17;101539.72;;;13.25;58.44
5651;BME280;40241;52.684;9.758;2023-04-21T06:46:42;101552.13;;;13.35;58.42
5651;BME280;40241;52.684;9.758;2023-04-21T06:49:08;101535.63;;;13.46;58.11
5651;BME280;40241;52.684;9.758;2023-04-21T06:51:33;101529.94;;;13.56;58.00
5651;BME280;40241;52.684;9.758;2023-04-21T06:53:59;101525.25;;;13.67;57.88
5651;BME280;40241;52.684;9.758;2023-04-21T06:56:26;101522.06;;;13.80;57.78
5651;BME280;40241;52.684;9.758;2023-04-21T06:58:52;101531.91;;;13.92;57.28
5651;BME280;40241;52.684;9.758;2023-04-21T07:01:17;101523.94;;;14.05;57.28
5651;BME280;40241;52.684;9.758;2023-04-21T07:03:42;101518.72;;;14.18;57.34
5651;BME280;40241;52.684;9.758;2023-04-21T07:06:07;101520.34;;;14.30;57.04
5651;BME280;40241;52.684;9.758;2023-04-21T07:08:33;101512.09;;;14.41;57.00
5651;BME280;40241;52.684;9.758;2023-04-21T07:10:58;101516.66;;;14.50;56.94
5651;BME280;40241;52.684;9.758;2023-04-21T07:13:23;101510.88;;;14.59;56.58
5651;BME280;40241;52.684;9.758;2023-04-21T07:15:49;101504.63;;;14.69;56.49
5651;BME280;40241;52.684;9.758;2023-04-21T07:18:14;101506.66;;;14.80;56.00
5651;BME280;40241;52.684;9.758;2023-04-21T07:20:40;101508.16;;;14.92;55.97
5651;BME280;40241;52.684;9.758;2023-04-21T07:23:05;101499.88;;;15.03;55.89
5651;BME280;40241;52.684;9.758;2023-04-21T07:25:31;101503.16;;;15.13;55.92
5651;BME280;40241;52.684;9.758;2023-04-21T07:27:56;101501.66;;;15.23;55.63
5651;BME280;40241;52.684;9.758;2023-04-21T07:30:21;101504.19;;;15.37;55.54
5651;BME280;40241;52.684;9.758;2023-04-21T07:32:47;101503.94;;;15.52;55.47
5651;BME280;40241;52.684;9.758;2023-04-21T07:35:12;101500.16;;;15.66;55.24
5651;BME280;40241;52.684;9.758;2023-04-21T07:37:37;101503.66;;;15.77;55.01
5651;BME280;40241;52.684;9.758;2023-04-21T07:40:05;101516.97;;;15.96;54.93
5651;BME280;40241;52.684;9.758;2023-04-21T07:42:31;101500.78;;;16.11;54.70
5651;BME280;40241;52.684;9.758;2023-04-21T07:44:56;101497.94;;;16.27;54.31
5651;BME280;40241;52.684;9.758;2023-04-21T07:47:22;101494.56;;;16.45;54.08
5651;BME280;40241;52.684;9.758;2023-04-21T07:49:47;101492.53;;;16.57;53.67
5651;BME280;40241;52.684;9.758;2023-04-21T07:52:12;101483.84;;;16.72;53.07
5651;BME280;40241;52.684;9.758;2023-04-21T07:54:38;101496.69;;;16.80;52.63
5651;BME280;40241;52.684;9.758;2023-04-21T07:57:03;101489.56;;;16.85;52.96
5651;BME280;40241;52.684;9.758;2023-04-21T07:59:28;101482.72;;;16.91;52.69
5651;BME280;40241;52.684;9.758;2023-04-21T08:01:54;101491.44;;;17.06;52.82
5651;BME280;40241;52.684;9.758;2023-04-21T08:04:19;101489.34;;;17.18;52.82
5651;BME280;40241;52.684;9.758;2023-04-21T08:06:44;101476.84;;;17.30;52.50
5651;BME280;40241;52.684;9.758;2023-04-21T08:09:10;101487.59;;;17.45;52.16
5651;BME280;40241;52.684;9.758;2023-04-21T08:11:36;101483.22;;;17.55;51.69
5651;BME280;40241;52.684;9.758;2023-04-21T08:14:01;101485.38;;;17.67;51.82
5651;BME280;40241;52.684;9.758;2023-04-21T08:16:28;101485.47;;;17.80;51.72
5651;BME280;40241;52.684;9.758;2023-04-21T08:18:53;101484.38;;;17.89;51.16
5651;BME280;40241;52.684;9.758;2023-04-21T08:21:18;101486.31;;;18.00;51.26
5651;BME280;40241;52.684;9.758;2023-04-21T08:23:44;101482.09;;;18.12;50.92
5651;BME280;40241;52.684;9.758;2023-04-21T08:26:09;101467.72;;;18.26;50.80
5651;BME280;40241;52.684;9.758;2023-04-21T08:28:35;101481.97;;;18.41;49.96
5651;BME280;40241;52.684;9.758;2023-04-21T08:31:00;101459.31;;;18.50;49.97
5651;BME280;40241;52.684;9.758;2023-04-21T08:33:26;101471.59;;;18.60;50.04
5651;BME280;40241;52.684;9.758;2023-04-21T08:35:52;101460.81;;;18.70;49.69
5651;BME280;40241;52.684;9.758;2023-04-21T08:38:17;101453.19;;;18.89;49.65
5651;BME280;40241;52.684;9.758;2023-04-21T08:40:43;101458.16;;;19.09;49.35
5651;BME280;40241;52.684;9.758;2023-04-21T08:43:08;101455.63;;;19.24;49.22
5651;BME280;40241;52.684;9.758;2023-04-21T08:45:34;101464.50;;;19.41;48.99
5651;BME280;40241;52.684;9.758;2023-04-21T08:48:01;101462.16;;;19.59;48.81
5651;BME280;40241;52.684;9.758;2023-04-21T08:50:29;101455.81;;;19.71;48.03
5651;BME280;40241;52.684;9.758;2023-04-21T08:52:56;101460.34;;;19.87;48.30
5651;BME280;40241;52.684;9.758;2023-04-21T08:55:29;101459.16;;;19.96;45.47
5651;BME280;40241;52.684;9.758;2023-04-21T08:57:55;101459.34;;;20.11;47.78
5651;BME280;40241;52.684;9.758;2023-04-21T09:00:21;101468.16;;;20.28;47.02
5651;BME280;40241;52.684;9.758;2023-04-21T09:02:57;101464.13;;;20.50;46.19
5651;BME280;40241;52.684;9.758;2023-04-21T09:05:28;101466.00;;;20.68;47.05
5651;BME280;40241;52.684;9.758;2023-04-21T09:08:07;101453.34;;;20.87;45.66
5651;BME280;40241;52.684;9.758;2023-04-21T09:10:33;101441.53;;;21.02;45.55
5651;BME280;40241;52.684;9.758;2023-04-21T09:13:06;101462.88;;;21.05;45.51
5651;BME280;40241;52.684;9.758;2023-04-21T09:15:41;101464.63;;;21.16;44.29
5651;BME280;40241;52.684;9.758;2023-04-21T09:18:14;101452.59;;;21.28;44.27
5651;BME280;40241;52.684;9.758;2023-04-21T09:20:41;101458.47;;;21.38;45.34
5651;BME280;40241;52.684;9.758;2023-04-21T09:23:08;101451.84;;;21.56;45.24
5651;BME280;40241;52.684;9.758;2023-04-21T09:25:33;101450.50;;;21.78;44.84
5651;BME280;40241;52.684;9.758;2023-04-21T09:27:59;101449.69;;;21.90;44.69
5651;BME280;40241;52.684;9.758;2023-04-21T09:30:25;101457.41;;;22.05;44.26
5651;BME280;40241;52.684;9.758;2023-04-21T09:32:55;101463.25;;;22.14;43.34
5651;BME280;40241;52.684;9.758;2023-04-21T09:35:22;101448.13;;;22.17;43.65
5651;BME280;40241;52.684;9.758;2023-04-21T09:37:47;101444.41;;;22.22;43.66
5651;BME280;40241;52.684;9.758;2023-04-21T09:40:13;101448.09;;;22.10;42.79
5651;BME280;40241;52.684;9.758;2023-04-21T09:42:42;101449.97;;;22.15;43.30
5651;BME280;40241;52.684;9.758;2023-04-21T09:45:08;101444.25;;;22.35;43.06
5651;BME280;40241;52.684;9.758;2023-04-21T09:47:39;101436.41;;;22.42;41.85
5651;BME280;40241;52.684;9.758;2023-04-21T09:50:06;101432.13;;;22.48;42.12
5651;BME280;40241;52.684;9.758;2023-04-21T09:52:32;101431.38;;;22.40;41.34
5651;BME280;40241;52.684;9.758;2023-04-21T09:55:00;101431.19;;;22.46;41.93
5651;BME280;40241;52.684;9.758;2023-04-21T09:57:30;101435.16;;;22.58;41.39
5651;BME280;40241;52.684;9.758;2023-04-21T10:00:06;101415.19;;;22.61;39.74
5651;BME280;40241;52.684;9.758;2023-04-21T10:02:34;101416.88;;;22.72;41.37
5651;BME280;40241;52.684;9.758;2023-04-21T10:05:03;101415.97;;;22.77;40.86
5651;BME280;40241;52.684;9.758;2023-04-21T10:07:29;101410.56;;;22.86;41.13
5651;BME280;40241;52.684;9.758;2023-04-21T10:09:55;101412.41;;;22.99;40.86
5651;BME280;40241;52.684;9.758;2023-04-21T10:12:23;101410.38;;;22.99;40.24
5651;BME280;40241;52.684;9.758;2023-04-21T10:14:55;101411.31;;;23.02;39.36
5651;BME280;40241;52.684;9.758;2023-04-21T10:17:22;101395.38;;;23.04;39.75
5651;BME280;40241;52.684;9.758;2023-04-21T10:19:53;101405.47;;;23.00;39.23
5651;BME280;40241;52.684;9.758;2023-04-21T10:22:34;101400.81;;;23.02;38.06
5651;BME280;40241;52.684;9.758;2023-04-21T10:25:02;101398.00;;;23.10;39.70
5651;BME280;40241;52.684;9.758;2023-04-21T10:27:33;101393.69;;;23.09;37.63
5651;BME280;40241;52.684;9.758;2023-04-21T10:29:59;101390.34;;;23.10;38.88
5651;BME280;40241;52.684;9.758;2023-04-21T10:32:41;101380.78;;;23.21;36.98
5651;BME280;40241;52.684;9.758;2023-04-21T10:35:12;101378.13;;;23.31;37.25
5651;BME280;40241;52.684;9.758;2023-04-21T10:37:39;101381.31;;;23.42;38.37
5651;BME280;40241;52.684;9.758;2023-04-21T10:40:07;101369.72;;;23.46;37.99
5651;BME280;40241;52.684;9.758;2023-04-21T10:42:52;101388.44;;;23.43;38.01
5651;BME280;40241;52.684;9.758;2023-04-21T10:45:17;101377.53;;;23.55;37.65
5651;BME280;40241;52.684;9.758;2023-04-21T10:47:45;101373.94;;;23.69;38.32
5651;BME280;40241;52.684;9.758;2023-04-21T10:50:22;101380.47;;;23.79;38.01
5651;BME280;40241;52.684;9.758;2023-04-21T10:53:09;101366.22;;;23.77;35.75
5651;BME280;40241;52.684;9.758;2023-04-21T10:55:35;101359.09;;;23.76;36.84
5651;BME280;40241;52.684;9.758;2023-04-21T10:58:05;101355.38;;;23.74;36.91
5651;BME280;40241;52.684;9.758;2023-04-21T11:00:32;101362.59;;;23.92;37.10
5651;BME280;40241;52.684;9.758;2023-04-21T11:02:58;101342.50;;;24.11;36.41
5651;BME280;40241;52.684;9.758;2023-04-21T11:05:39;101349.56;;;24.19;34.32
5651;BME280;40241;52.684;9.758;2023-04-21T11:08:08;101336.16;;;24.35;35.60
5651;BME280;40241;52.684;9.758;2023-04-21T11:13:07;101338.22;;;24.84;35.29
5651;BME280;40241;52.684;9.758;2023-04-21T11:15:32;101334.88;;;25.02;34.41
5651;BME280;40241;52.684;9.758;2023-04-21T11:17:58;101321.63;;;25.12;34.61
5651;BME280;40241;52.684;9.758;2023-04-21T11:20:23;101326.00;;;25.23;34.45
5651;BME280;40241;52.684;9.758;2023-04-21T11:22:51;101320.47;;;25.33;33.62
5651;BME280;40241;52.684;9.758;2023-04-21T11:25:17;101321.31;;;25.43;33.79
5651;BME280;40241;52.684;9.758;2023-04-21T11:27:55;101319.38;;;25.62;31.84
5651;BME280;40241;52.684;9.758;2023-04-21T11:30:30;101319.69;;;25.83;32.07
5651;BME280;40241;52.684;9.758;2023-04-21T11:32:56;101311.63;;;25.97;33.15
5651;BME280;40241;52.684;9.758;2023-04-21T11:35:22;101303.44;;;26.18;33.11
5651;BME280;40241;52.684;9.758;2023-04-21T11:37:49;101307.50;;;26.34;32.57
5651;BME280;40241;52.684;9.758;2023-04-21T11:40:15;101305.91;;;26.41;31.97
5651;BME280;40241;52.684;9.758;2023-04-21T11:42:41;101298.97;;;26.51;32.14
5651;BME280;40241;52.684;9.758;2023-04-21T11:45:07;101302.88;;;26.65;32.12
5651;BME280;40241;52.684;9.758;2023-04-21T11:47:32;101286.34;;;26.52;31.22
5651;BME280;40241;52.684;9.758;2023-04-21T11:50:01;101292.72;;;26.53;29.49
5651;BME280;40241;52.684;9.758;2023-04-21T11:52:33;101302.38;;;26.50;29.41
5651;BME280;40241;52.684;9.758;2023-04-21T11:55:04;101286.91;;;26.41;30.75
5651;BME280;40241;52.684;9.758;2023-04-21T11:57:31;101289.72;;;26.41;30.78
5651;BME280;40241;52.684;9.758;2023-04-21T11:59:58;101280.53;;;26.50;31.22
5651;BME280;40241;52.684;9.758;2023-04-21T12:02:28;101279.97;;;26.61;30.75
5651;BME280;40241;52.684;9.758;2023-04-21T12:05:01;101279.75;;;26.86;29.20
5651;BME280;40241;52.684;9.758;2023-04-21T12:07:31;101277.56;;;27.04;30.31
5651;BME280;40241;52.684;9.758;2023-04-21T12:09:58;101259.25;;;27.05;30.46
5651;BME280;40241;52.684;9.758;2023-04-21T12:12:23;101270.84;;;27.18;30.27
5651;BME280;40241;52.684;9.758;2023-04-21T12:14:50;101269.66;;;27.31;30.48
5651;BME280;40241;52.684;9.758;2023-04-21T12:17:16;101274.44;;;27.38;30.02
5651;BME280;40241;52.684;9.758;2023-04-21T12:19:42;101259.72;;;27.01;29.60
5651;BME280;40241;52.684;9.758;2023-04-21T12:22:09;101257.78;;;27.04;29.84
5651;BME280;40241;52.684;9.758;2023-04-21T12:24:35;101262.09;;;26.95;29.20
5651;BME280;40241;52.684;9.758;2023-04-21T12:27:01;101282.13;;;26.90;29.32
5651;BME280;40241;52.684;9.758;2023-04-21T12:29:27;101263.84;;;26.81;29.36
5651;BME280;40241;52.684;9.758;2023-04-21T12:31:53;101267.69;;;26.76;29.77
5651;BME280;40241;52.684;9.758;2023-04-21T12:34:18;101252.09;;;26.85;30.11
5651;BME280;40241;52.684;9.758;2023-04-21T12:36:43;101250.34;;;27.08;29.82
5651;BME280;40241;52.684;9.758;2023-04-21T12:39:09;101243.03;;;27.24;29.81
5651;BME280;40241;52.684;9.758;2023-04-21T12:41:34;101256.44;;;27.43;29.56
5651;BME280;40241;52.684;9.758;2023-04-21T12:44:00;101252.56;;;27.48;29.54
5651;BME280;40241;52.684;9.758;2023-04-21T12:46:26;101240.47;;;27.57;29.22
5651;BME280;40241;52.684;9.758;2023-04-21T12:48:52;101248.41;;;27.49;28.99
5651;BME280;40241;52.684;9.758;2023-04-21T12:51:17;101233.22;;;27.44;28.85
5651;BME280;40241;52.684;9.758;2023-04-21T12:53:42;101244.22;;;27.31;28.96
5651;BME280;40241;52.684;9.758;2023-04-21T12:56:08;101246.63;;;27.25;29.16
5651;BME280;40241;52.684;9.758;2023-04-21T12:58:33;101245.88;;;27.34;29.24